createdAt,value
2022-09-01T00:02:17.246Z,0.80
2022-09-01T00:08:19.189Z,0.70
2022-09-01T00:14:30.055Z,0.60
2022-09-01T00:20:33.636Z,0.80
2022-09-01T00:26:35.886Z,0.50
2022-09-01T00:32:37.711Z,0.60
2022-09-01T00:38:39.571Z,0.82
2022-09-01T00:44:41.456Z,0.50
2022-09-01T00:50:43.676Z,0.60
2022-09-01T00:56:57.384Z,0.60
2022-09-01T01:03:00.939Z,0.63
2022-09-01T01:09:02.996Z,0.65
2022-09-01T01:15:07.249Z,0.52
2022-09-01T01:21:35.694Z,0.80
2022-09-01T01:27:43.162Z,0.68
2022-09-01T01:33:57.233Z,0.60
2022-09-01T01:39:58.993Z,0.90
2022-09-01T01:46:02.823Z,0.80
2022-09-01T01:52:04.927Z,0.70
2022-09-01T01:58:12.235Z,0.77
2022-09-01T02:10:17.088Z,0.80
2022-09-01T02:16:21.109Z,0.85
2022-09-01T02:22:23.050Z,0.90
2022-09-01T02:28:24.931Z,1.10
2022-09-01T02:34:28.924Z,0.77
2022-09-01T02:40:33.147Z,0.68
2022-09-01T02:46:37.928Z,0.70
2022-09-01T02:52:40.494Z,1.55
2022-09-01T02:58:47.379Z,0.90
2022-09-01T03:04:50.575Z,0.65
2022-09-01T03:10:53.994Z,0.80
2022-09-01T03:16:55.929Z,0.90
2022-09-01T03:22:59.290Z,0.77
2022-09-01T03:29:01.947Z,0.80
2022-09-01T03:35:04.076Z,1.00
2022-09-01T03:41:06.443Z,0.90
2022-09-01T03:47:11.101Z,0.85
2022-09-01T03:53:22.849Z,0.75
2022-09-01T03:59:25.801Z,1.00
2022-09-01T04:05:29.791Z,0.80
2022-09-01T04:11:32.441Z,1.00
2022-09-01T04:17:53.255Z,0.85
2022-09-01T04:23:58.074Z,0.85
2022-09-01T04:30:01.577Z,0.90
2022-09-01T04:36:05.406Z,0.80
2022-09-01T04:42:09.022Z,0.90
2022-09-01T04:48:10.963Z,1.03
2022-09-01T04:54:14.243Z,0.77
2022-09-01T05:00:24.896Z,0.93
2022-09-01T05:06:27.508Z,0.70
2022-09-01T05:12:29.472Z,0.90
2022-09-01T05:18:31.456Z,1.02
2022-09-01T05:24:38.516Z,1.00
2022-09-01T05:30:43.233Z,0.90
2022-09-01T05:36:46.327Z,1.10
2022-09-01T05:42:48.148Z,1.00
2022-09-01T05:48:51.899Z,1.10
2022-09-01T05:54:54.100Z,1.10
2022-09-01T06:00:59.076Z,1.00
2022-09-01T06:07:09.595Z,1.15
2022-09-01T06:13:15.930Z,1.20
2022-09-01T06:19:20.037Z,1.20
2022-09-01T06:25:22.213Z,1.20
2022-09-01T06:31:26.348Z,1.23
2022-09-01T06:37:28.892Z,1.10
2022-09-01T06:43:32.049Z,1.17
2022-09-01T06:49:34.661Z,1.00
2022-09-01T06:55:40.409Z,0.90
2022-09-01T07:01:42.575Z,1.05
2022-09-01T07:08:05.196Z,0.80
2022-09-01T07:14:15.587Z,1.00
2022-09-01T07:20:23.933Z,1.10
2022-09-01T07:26:26.847Z,1.00
2022-09-01T07:32:47.497Z,1.00
2022-09-01T07:45:32.400Z,0.80
2022-09-01T07:51:37.740Z,0.80
2022-09-01T07:57:42.574Z,0.90
2022-09-01T08:03:46.227Z,0.77
2022-09-01T08:09:47.968Z,1.38
2022-09-01T08:22:11.617Z,0.93
2022-09-01T08:28:15.012Z,1.08
2022-09-01T08:34:17.090Z,1.00
2022-09-01T08:40:23.020Z,1.08
2022-09-01T08:46:34.924Z,1.00
2022-09-01T08:52:41.976Z,0.90
2022-09-01T08:58:44.057Z,1.08
2022-09-01T09:05:15.408Z,0.80
2022-09-01T09:11:26.821Z,1.10
2022-09-01T09:17:39.697Z,0.80
2022-09-01T09:23:46.529Z,1.10
2022-09-01T09:30:01.841Z,0.90
2022-09-01T09:36:30.124Z,0.90
2022-09-01T09:42:36.344Z,0.80
2022-09-01T09:48:38.701Z,0.70
2022-09-01T09:54:58.972Z,0.68
2022-09-01T10:01:09.251Z,0.73
2022-09-01T10:07:24.778Z,0.65
2022-09-01T10:13:32.623Z,0.65
2022-09-01T10:19:35.952Z,0.50
2022-09-01T10:25:39.421Z,0.83
2022-09-01T10:37:43.631Z,0.70
2022-09-01T10:43:50.454Z,0.60
2022-09-01T10:49:52.272Z,0.75
2022-09-01T10:56:36.603Z,0.90
2022-09-01T11:02:46.386Z,0.50
2022-09-01T11:09:00.172Z,0.43
2022-09-01T11:15:26.753Z,0.52
2022-09-01T11:21:30.871Z,0.70
2022-09-01T11:27:50.866Z,0.80
2022-09-01T11:34:11.378Z,0.50
2022-09-01T11:40:32.471Z,0.60
2022-09-01T11:46:36.220Z,0.40
2022-09-01T11:52:38.932Z,0.50
2022-09-01T11:58:41.877Z,0.60
2022-09-01T12:04:44.012Z,0.77
2022-09-01T12:10:46.985Z,0.43
2022-09-01T12:17:06.764Z,0.50
2022-09-01T12:23:31.403Z,0.55
2022-09-01T12:29:33.360Z,0.70
2022-09-01T12:35:35.217Z,0.70
2022-09-01T12:41:40.014Z,0.60
2022-09-01T12:47:48.175Z,0.55
2022-09-01T12:53:59.740Z,0.50
2022-09-01T13:00:23.260Z,0.57
2022-09-01T13:06:25.539Z,0.50
2022-09-01T13:12:27.324Z,0.40
2022-09-01T13:18:29.403Z,0.47
2022-09-01T13:24:31.934Z,0.63
2022-09-01T13:30:34.968Z,0.50
2022-09-01T13:36:47.349Z,0.50
2022-09-01T13:42:53.068Z,0.68
2022-09-01T13:49:02.843Z,0.57
2022-09-01T13:55:06.645Z,0.60
2022-09-01T14:01:08.775Z,0.63
2022-09-01T14:07:10.573Z,0.60
2022-09-01T14:13:13.290Z,0.40
2022-09-01T14:19:15.826Z,0.60
2022-09-01T14:25:19.872Z,0.50
2022-09-01T14:31:22.528Z,0.60
2022-09-01T14:37:24.576Z,0.40
2022-09-01T14:43:26.486Z,0.50
2022-09-01T14:49:33.323Z,0.40
2022-09-01T14:55:35.194Z,0.40
2022-09-01T15:01:37.003Z,0.50
2022-09-01T15:07:39.661Z,0.40
2022-09-01T15:13:41.851Z,0.50
2022-09-01T15:19:43.591Z,0.47
2022-09-01T15:25:45.684Z,0.50
2022-09-01T15:31:47.533Z,0.52
2022-09-01T15:37:51.475Z,0.40
2022-09-01T15:43:53.612Z,0.70
2022-09-01T15:49:55.361Z,0.60
2022-09-01T15:55:57.436Z,0.40
2022-09-01T16:01:59.243Z,0.50
2022-09-01T16:08:02.247Z,0.40
2022-09-01T16:14:04.509Z,0.57
2022-09-01T16:20:23.368Z,0.50
2022-09-01T16:26:25.077Z,0.50
2022-09-01T16:32:27.175Z,0.50
2022-09-01T16:38:35.243Z,0.50
2022-09-01T16:44:57.363Z,0.40
2022-09-01T16:51:17.144Z,0.50
2022-09-01T16:57:27.215Z,0.50
2022-09-01T17:03:43.925Z,0.52
2022-09-01T17:09:57.135Z,0.50
2022-09-01T17:16:29.624Z,0.43
2022-09-01T17:22:32.807Z,0.40
2022-09-01T17:29:02.269Z,0.50
2022-09-01T17:35:23.370Z,0.40
2022-09-01T17:41:37.803Z,0.60
2022-09-01T17:48:02.630Z,0.40
2022-09-01T17:54:25.243Z,0.60
2022-09-01T18:00:34.907Z,0.70
2022-09-01T18:06:55.498Z,0.60
2022-09-01T18:13:04.171Z,0.52
2022-09-01T18:19:16.265Z,0.30
2022-09-01T18:25:22.609Z,0.52
2022-09-01T18:31:57.922Z,0.40
2022-09-01T18:38:17.732Z,0.68
2022-09-01T18:44:34.754Z,0.50
2022-09-01T18:50:57.534Z,0.40
2022-09-01T18:57:00.958Z,0.50
2022-09-01T19:03:52.857Z,0.60
2022-09-01T19:10:07.014Z,0.57
2022-09-01T19:16:18.566Z,0.50
2022-09-01T19:22:45.105Z,0.43
2022-09-01T19:29:04.902Z,0.50
2022-09-01T19:35:13.446Z,1.05
2022-09-01T19:41:44.708Z,0.43
2022-09-01T19:47:59.309Z,1.05
2022-09-01T19:54:28.544Z,0.47
2022-09-01T20:00:58.541Z,0.60
2022-09-01T20:07:01.881Z,0.40
2022-09-01T20:13:03.569Z,0.30
2022-09-01T20:26:06.263Z,0.40
2022-09-01T20:32:10.079Z,0.30
2022-09-01T20:38:49.751Z,0.40
2022-09-01T20:44:58.881Z,0.30
2022-09-01T20:51:30.123Z,0.40
2022-09-01T20:57:44.518Z,0.50
2022-09-01T21:04:12.927Z,0.30
2022-09-01T21:10:26.891Z,0.50
2022-09-01T21:16:40.848Z,0.40
2022-09-01T21:22:42.818Z,0.20
2022-09-01T21:28:48.300Z,0.40
2022-09-01T21:34:50.597Z,0.50
2022-09-01T21:40:53.501Z,0.50
2022-09-01T21:46:56.602Z,0.60
2022-09-01T21:52:58.412Z,0.40
2022-09-01T21:59:00.224Z,0.45
2022-09-01T22:05:05.895Z,0.40
2022-09-01T22:11:09.957Z,0.50
2022-09-01T22:23:14.930Z,0.35
2022-09-01T22:29:18.396Z,0.50
2022-09-01T22:35:20.764Z,0.40
2022-09-01T22:41:23.981Z,0.40
2022-09-01T22:47:25.966Z,0.40
2022-09-01T22:53:27.756Z,0.45
2022-09-01T22:59:29.612Z,0.40
2022-09-01T23:05:31.668Z,1.00
2022-09-01T23:11:33.432Z,0.38
2022-09-01T23:17:37.829Z,0.57
2022-09-01T23:23:40.811Z,0.30
2022-09-01T23:29:43.690Z,0.50
2022-09-01T23:35:49.347Z,1.40
2022-09-01T23:41:51.819Z,0.40
2022-09-01T23:47:53.544Z,0.70
2022-09-01T23:53:56.328Z,0.52
2022-09-01T23:59:58.139Z,0.40
